TimeEST,TemperatureF,Dew PointF,Humidity,Sea Level PressureIn,VisibilityMPH,Wind Direction,Wind SpeedMPH,Gust SpeedMPH,PrecipitationIn,Events,Conditions,WindDirDegrees,DateUTC
12:53 AM,25.0,19.0,78,30.24,10.0,SW,6.9,-,N/A,,Clear,220,2011-11-18 05:53:00
1:53 AM,25.0,18.0,75,30.25,10.0,SSW,6.9,-,N/A,,Clear,210,2011-11-18 06:53:00
2:53 AM,24.1,18.0,77,30.27,10.0,SW,6.9,-,N/A,,Clear,220,2011-11-18 07:53:00
3:53 AM,24.1,18.0,77,30.26,10.0,SSW,6.9,-,N/A,,Clear,200,2011-11-18 08:53:00
4:53 AM,26.1,18.0,71,30.27,10.0,SSW,5.8,-,N/A,,Clear,200,2011-11-18 09:53:00
5:53 AM,27.0,18.0,69,30.26,10.0,South,6.9,-,N/A,,Clear,190,2011-11-18 10:53:00
6:53 AM,27.0,18.0,69,30.26,10.0,South,8.1,-,N/A,,Partly Cloudy,190,2011-11-18 11:53:00
7:53 AM,28.0,18.0,66,30.26,10.0,South,8.1,-,N/A,,Clear,180,2011-11-18 12:53:00
8:53 AM,33.1,16.0,50,30.24,10.0,SSW,11.5,-,N/A,,Clear,210,2011-11-18 13:53:00
9:53 AM,36.0,16.0,44,30.22,10.0,SSW,13.8,-,N/A,,Clear,210,2011-11-18 14:53:00
10:53 AM,41.0,15.8,36,30.18,10.0,SSW,20.7,33.4,N/A,,Clear,210,2011-11-18 15:53:00
11:53 AM,43.0,15.1,32,30.19,10.0,SSW,21.9,29.9,N/A,,Scattered Clouds,210,2011-11-18 16:53:00
12:53 PM,46.9,14.0,27,30.15,10.0,SW,25.3,34.5,N/A,,Clear,220,2011-11-18 17:53:00
1:53 PM,46.9,14.0,27,30.12,10.0,SW,18.4,27.6,N/A,,Clear,220,2011-11-18 18:53:00
2:53 PM,46.9,12.9,25,30.07,10.0,SSW,23.0,35.7,N/A,,Clear,200,2011-11-18 19:53:00
3:53 PM,46.0,14.0,28,30.06,10.0,South,24.2,32.2,N/A,,Clear,190,2011-11-18 20:53:00
4:53 PM,44.1,15.1,31,30.03,10.0,South,18.4,26.5,N/A,,Clear,190,2011-11-18 21:53:00
5:53 PM,43.0,16.0,34,30.02,10.0,South,13.8,29.9,N/A,,Clear,190,2011-11-18 22:53:00
6:53 PM,44.1,17.1,34,30.02,10.0,South,24.2,35.7,N/A,,Overcast,190,2011-11-18 23:53:00
7:53 PM,43.0,17.1,35,30.01,10.0,South,16.1,29.9,N/A,,Mostly Cloudy,190,2011-11-19 00:53:00
8:53 PM,43.0,17.1,35,30.01,10.0,South,16.1,31.1,N/A,,Mostly Cloudy,190,2011-11-19 01:53:00
9:53 PM,42.1,18.0,38,30.02,10.0,SSW,15.0,23.0,N/A,,Mostly Cloudy,200,2011-11-19 02:53:00
10:53 PM,39.9,19.0,43,30.02,10.0,SSW,10.4,-,N/A,,Partly Cloudy,200,2011-11-19 03:53:00
11:53 PM,39.0,19.9,46,30.01,10.0,South,6.9,-,N/A,,Scattered Clouds,190,2011-11-19 04:53:00